Time;durP1;ratioP1;P1;durP2;ratioP2;P2;SDS_P1;SDS_P2;PMS_P1;PMS_P2;Temp;Humidity;BMP_temperature;BMP_pressure;BME280_temperature;BME280_humidity;BME280_pressure;Samples;Min_cycle;Max_cycle;Signal;HPM_P1;HPM_P2
2024/01/28 00:00:52;;;;;;;16.27;6.68;;;;;;;-148.88;100.00;-17125.47;5074039;28;20059;-89
2024/01/28 00:03:20;;;;;;;12.82;6.63;;;;;;;-148.88;100.00;-17125.47;5072870;28;20098;-90
2024/01/28 00:05:52;;;;;;;24.63;7.35;;;;;;;-148.88;100.00;-17125.47;5074529;28;20033;-89
2024/01/28 00:08:20;;;;;;;14.25;6.40;;;;;;;-148.88;100.00;-17125.47;5075349;28;20025;-89
2024/01/28 00:10:54;;;;;;;15.27;6.78;;;;;;;-148.88;100.00;-17125.47;5073290;28;20021;-88
2024/01/28 00:13:23;;;;;;;;;;;;;;;-148.88;100.00;-17125.47;5074075;28;20025;-88
2024/01/28 00:15:58;;;;;;;14.07;6.80;;;;;;;-148.88;100.00;-17125.47;5072816;28;19991;-89
2024/01/28 00:18:30;;;;;;;17.65;7.47;;;;;;;-148.88;100.00;-17125.47;5072866;28;20119;-89
2024/01/28 00:21:34;;;;;;;19.35;6.30;;;;;;;-148.88;100.00;-17125.47;5074174;28;20106;-89
2024/01/28 00:24:09;;;;;;;24.02;6.97;;;;;;;-148.88;100.00;-17125.47;5072507;28;20070;-89
2024/01/28 00:26:51;;;;;;;22.98;6.85;;;;;;;-148.88;100.00;-17125.47;5072831;28;20028;-89
2024/01/28 00:29:29;;;;;;;16.90;6.65;;;;;;;-148.88;100.00;-17125.47;5073766;28;20021;-88
2024/01/28 00:31:58;;;;;;;12.88;5.82;;;;;;;-148.88;100.00;-17125.47;5073444;28;20063;-88
2024/01/28 00:34:38;;;;;;;15.80;6.40;;;;;;;-148.88;100.00;-17125.47;5072067;28;20028;-88
2024/01/28 00:39:57;;;;;;;22.08;6.25;;;;;;;-148.88;100.00;-17125.47;5067964;28;20033;-89
2024/01/28 00:42:49;;;;;;;27.30;6.85;;;;;;;-148.88;100.00;-17125.47;5071850;28;20119;-89
2024/01/28 00:45:14;;;;;;;15.05;5.93;;;;;;;-148.88;100.00;-17125.47;5083699;22;20146;-79
2024/01/28 00:47:43;;;;;;;10.38;5.43;;;;;;;-148.88;100.00;-17125.47;5079424;28;20033;-79
2024/01/28 00:50:08;;;;;;;21.23;5.75;;;;;;;-148.88;100.00;-17125.47;5077672;28;20028;-79
2024/01/28 00:52:34;;;;;;;15.57;5.13;;;;;;;-148.88;100.00;-17125.47;5076477;28;20017;-79
2024/01/28 00:54:59;;;;;;;14.43;5.65;;;;;;;-148.88;100.00;-17125.47;5076834;28;20529;-79
2024/01/28 00:57:24;;;;;;;16.65;5.50;;;;;;;-148.88;100.00;-17125.47;5077340;28;20024;-79
2024/01/28 00:59:50;;;;;;;8.93;4.57;;;;;;;-148.88;100.00;-17125.47;5077680;28;20016;-79
2024/01/28 01:02:15;;;;;;;12.13;4.97;;;;;;;-148.88;100.00;-17125.47;5078076;28;20025;-80
2024/01/28 01:04:41;;;;;;;17.58;5.70;;;;;;;-148.88;100.00;-17125.47;5076699;28;20055;-80
2024/01/28 01:07:06;;;;;;;21.70;5.82;;;;;;;-148.88;100.00;-17125.47;5078197;28;20024;-79
2024/01/28 01:09:31;;;;;;;17.52;5.35;;;;;;;-148.88;100.00;-17125.47;5081761;28;20084;-79
2024/01/28 01:11:57;;;;;;;20.73;6.10;;;;;;;-148.88;100.00;-17125.47;5082869;28;20094;-79
2024/01/28 01:14:22;;;;;;;17.30;5.57;;;;;;;-148.88;100.00;-17125.47;5083239;28;20048;-79
2024/01/28 01:16:47;;;;;;;19.95;5.90;;;;;;;-148.88;100.00;-17125.47;5083049;28;20038;-79
2024/01/28 01:19:13;;;;;;;19.02;6.47;;;;;;;-148.88;100.00;-17125.47;5084116;28;20021;-80
2024/01/28 01:21:38;;;;;;;15.68;6.38;;;;;;;-148.88;100.00;-17125.47;5084072;28;20025;-79
2024/01/28 01:24:03;;;;;;;21.15;7.28;;;;;;;-148.88;100.00;-17125.47;5083028;28;20028;-79
2024/01/28 01:26:29;;;;;;;13.60;5.70;;;;;;;-148.88;100.00;-17125.47;5079672;28;20078;-79
2024/01/28 01:28:54;;;;;;;18.65;6.90;;;;;;;-148.88;100.00;-17125.47;5080983;28;20084;-80
2024/01/28 01:31:19;;;;;;;18.95;5.65;;;;;;;-148.88;100.00;-17125.47;5081452;28;20109;-79
2024/01/28 01:33:45;;;;;;;27.98;8.57;;;;;;;-148.88;100.00;-17125.47;5081648;28;20048;-80
2024/01/28 01:36:10;;;;;;;28.80;11.20;;;;;;;-148.88;100.00;-17125.47;5081508;28;20039;-80
2024/01/28 01:38:36;;;;;;;18.73;7.60;;;;;;;-148.88;100.00;-17125.47;5081835;28;20024;-80
2024/01/28 01:41:01;;;;;;;18.25;6.90;;;;;;;-148.88;100.00;-17125.47;5080639;28;20119;-79
2024/01/28 01:43:27;;;;;;;13.57;5.75;;;;;;;-148.88;100.00;-17125.47;5081955;28;20026;-79
2024/01/28 01:45:52;;;;;;;29.48;7.65;;;;;;;-148.88;100.00;-17125.47;5083008;28;20040;-80
2024/01/28 01:48:18;;;;;;;17.90;6.13;;;;;;;-148.88;100.00;-17125.47;5082018;28;20032;-80
2024/01/28 01:50:44;;;;;;;14.32;6.40;;;;;;;-148.88;100.00;-17125.47;5083596;28;20021;-79
2024/01/28 01:53:10;;;;;;;15.18;5.85;;;;;;;-148.88;100.00;-17125.47;5083453;28;20024;-79
2024/01/28 01:55:38;;;;;;;11.98;5.47;;;;;;;-148.88;100.00;-17125.47;5083259;28;20025;-80
2024/01/28 01:58:04;;;;;;;13.18;5.72;;;;;;;-148.88;100.00;-17125.47;5082688;28;20032;-79
2024/01/28 02:00:31;;;;;;;20.20;6.30;;;;;;;-148.88;100.00;-17125.47;5081117;28;20052;-79
2024/01/28 02:02:56;;;;;;;21.48;6.38;;;;;;;-148.88;100.00;-17125.47;5079939;28;20021;-79
2024/01/28 02:05:21;;;;;;;14.05;5.15;;;;;;;-148.88;100.00;-17125.47;5081083;28;20021;-79
2024/01/28 02:07:47;;;;;;;19.23;5.63;;;;;;;-148.88;100.00;-17125.47;5079560;28;20524;-80
2024/01/28 02:10:12;;;;;;;16.33;5.25;;;;;;;-148.88;100.00;-17125.47;5081214;28;20440;-79
2024/01/28 02:12:38;;;;;;;14.48;5.78;;;;;;;-148.88;100.00;-17125.47;5079789;28;20556;-80
2024/01/28 02:15:11;;;;;;;13.82;4.80;;;;;;;-148.88;100.00;-17125.47;5080316;28;20550;-80
2024/01/28 02:17:37;;;;;;;18.35;6.47;;;;;;;-148.88;100.00;-17125.47;5081043;28;20082;-79
2024/01/28 02:20:03;;;;;;;13.65;5.35;;;;;;;-148.88;100.00;-17125.47;5080684;28;20024;-80
2024/01/28 02:22:29;;;;;;;15.13;5.55;;;;;;;-148.88;100.00;-17125.47;5081687;28;20391;-80
2024/01/28 02:24:55;;;;;;;17.25;5.47;;;;;;;-148.88;100.00;-17125.47;5083062;28;20024;-79
2024/01/28 02:27:20;;;;;;;17.02;5.68;;;;;;;-148.88;100.00;-17125.47;5083511;28;20108;-79
2024/01/28 02:29:45;;;;;;;15.68;4.85;;;;;;;-148.88;100.00;-17125.47;5080907;28;20024;-80
2024/01/28 02:32:16;;;;;;;12.23;5.00;;;;;;;-148.88;100.00;-17125.47;5081881;28;20024;-79
2024/01/28 02:34:42;;;;;;;18.63;5.75;;;;;;;-148.88;100.00;-17125.47;5079377;28;20024;-79
2024/01/28 02:37:10;;;;;;;11.27;4.75;;;;;;;-148.88;100.00;-17125.47;5081011;28;20455;-79
2024/01/28 02:39:36;;;;;;;12.65;4.75;;;;;;;-148.88;100.00;-17125.47;5079674;28;20029;-79
2024/01/28 02:42:01;;;;;;;12.75;4.95;;;;;;;-148.88;100.00;-17125.47;5079990;28;20032;-80
2024/01/28 02:44:26;;;;;;;17.58;5.13;;;;;;;-148.88;100.00;-17125.47;5079777;28;20029;-80
2024/01/28 02:46:53;;;;;;;15.15;4.57;;;;;;;-148.88;100.00;-17125.47;5080747;28;20052;-80
2024/01/28 02:49:21;;;;;;;12.38;5.65;;;;;;;-148.88;100.00;-17125.47;5079625;28;20076;-80
2024/01/28 02:51:47;;;;;;;11.48;4.32;;;;;;;-148.88;100.00;-17125.47;5080612;28;20017;-79
2024/01/28 02:54:12;;;;;;;10.82;4.60;;;;;;;-148.88;100.00;-17125.47;5079690;28;20051;-80
2024/01/28 02:56:38;;;;;;;16.40;5.13;;;;;;;-148.88;100.00;-17125.47;5079573;28;20063;-80
2024/01/28 02:59:03;;;;;;;10.32;4.53;;;;;;;-148.88;100.00;-17125.47;5081988;28;20108;-80
2024/01/28 03:01:29;;;;;;;16.30;4.70;;;;;;;-148.88;100.00;-17125.47;5081586;28;20024;-80
2024/01/28 03:03:55;;;;;;;16.80;4.95;;;;;;;-148.88;100.00;-17125.47;5082681;28;20017;-79
2024/01/28 03:06:20;;;;;;;14.70;5.45;;;;;;;-148.88;100.00;-17125.47;5080717;28;20413;-79
2024/01/28 03:08:46;;;;;;;14.98;4.60;;;;;;;-148.88;100.00;-17125.47;5078527;28;20398;-79
2024/01/28 03:11:11;;;;;;;12.60;4.47;;;;;;;-148.88;100.00;-17125.47;5080951;28;20029;-79
2024/01/28 03:13:37;;;;;;;11.68;4.35;;;;;;;-148.88;100.00;-17125.47;5081422;28;20048;-79
2024/01/28 03:16:03;;;;;;;17.48;4.75;;;;;;;-148.88;100.00;-17125.47;5080164;28;20027;-80
2024/01/28 03:18:28;;;;;;;12.60;4.43;;;;;;;-148.88;100.00;-17125.47;5079572;28;20398;-79
2024/01/28 03:20:53;;;;;;;12.40;4.97;;;;;;;-148.88;100.00;-17125.47;5079722;28;20021;-79
2024/01/28 03:23:19;;;;;;;12.75;3.97;;;;;;;-148.88;100.00;-17125.47;5080076;28;20043;-79
2024/01/28 03:25:45;;;;;;;15.40;4.63;;;;;;;-148.88;100.00;-17125.47;5078121;28;20092;-79
2024/01/28 03:28:10;;;;;;;11.50;4.15;;;;;;;-148.88;100.00;-17125.47;5080403;28;20024;-79
2024/01/28 03:30:36;;;;;;;11.07;4.43;;;;;;;-148.88;100.00;-17125.47;5080140;28;20680;-80
2024/01/28 03:33:01;;;;;;;16.08;5.28;;;;;;;-148.88;100.00;-17125.47;5080690;28;20395;-80
2024/01/28 03:35:26;;;;;;;14.15;5.32;;;;;;;-148.88;100.00;-17125.47;5080846;28;20490;-79
2024/01/28 03:37:52;;;;;;;11.02;4.55;;;;;;;-148.88;100.00;-17125.47;5081092;28;20040;-80
2024/01/28 03:40:17;;;;;;;23.58;5.38;;;;;;;-148.88;100.00;-17125.47;5079187;28;20483;-79
2024/01/28 03:42:43;;;;;;;13.55;5.63;;;;;;;-148.88;100.00;-17125.47;5079153;28;20024;-80
2024/01/28 03:45:12;;;;;;;12.85;4.50;;;;;;;-148.88;100.00;-17125.47;5080475;28;20111;-80
2024/01/28 03:47:37;;;;;;;19.17;5.38;;;;;;;-148.88;100.00;-17125.47;5080386;28;20032;-79
2024/01/28 03:50:04;;;;;;;14.20;5.03;;;;;;;-148.88;100.00;-17125.47;5079634;28;20590;-79
2024/01/28 03:52:29;;;;;;;18.25;5.43;;;;;;;-148.88;100.00;-17125.47;5077988;28;20024;-79
2024/01/28 03:54:55;;;;;;;15.50;6.00;;;;;;;-148.88;100.00;-17125.47;5077011;28;20024;-79
2024/01/28 03:57:20;;;;;;;16.98;5.20;;;;;;;-148.88;100.00;-17125.47;5078985;28;20020;-79
2024/01/28 03:59:45;;;;;;;13.05;4.63;;;;;;;-148.88;100.00;-17125.47;5077750;28;20052;-80
2024/01/28 04:02:11;;;;;;;17.58;5.28;;;;;;;-148.88;100.00;-17125.47;5079763;28;20052;-80
2024/01/28 04:04:36;;;;;;;13.95;4.97;;;;;;;-148.88;100.00;-17125.47;5078046;28;20039;-80
2024/01/28 04:07:02;;;;;;;18.88;5.68;;;;;;;-148.88;100.00;-17125.47;5080392;28;20440;-80
2024/01/28 04:09:27;;;;;;;12.75;4.90;;;;;;;-148.88;100.00;-17125.47;5079137;28;20084;-79
2024/01/28 04:11:53;;;;;;;10.77;4.85;;;;;;;-148.88;100.00;-17125.47;5079120;28;20024;-80
2024/01/28 04:14:18;;;;;;;18.10;5.10;;;;;;;-148.88;100.00;-17125.47;5080435;28;20025;-80
2024/01/28 04:16:43;;;;;;;16.98;4.75;;;;;;;-148.88;100.00;-17125.47;5080150;28;20104;-79
2024/01/28 04:19:09;;;;;;;14.95;5.40;;;;;;;-148.88;100.00;-17125.47;5079982;28;20471;-79
2024/01/28 04:21:35;;;;;;;12.55;4.75;;;;;;;-148.88;100.00;-17125.47;5079101;28;20533;-79
2024/01/28 04:24:01;;;;;;;9.32;4.03;;;;;;;-148.88;100.00;-17125.47;5078706;28;20368;-79
2024/01/28 04:26:27;;;;;;;21.80;5.97;;;;;;;-148.88;100.00;-17125.47;5080069;28;20031;-79
2024/01/28 04:28:52;;;;;;;11.15;4.50;;;;;;;-148.88;100.00;-17125.47;5078812;28;20020;-80
2024/01/28 04:31:19;;;;;;;16.00;5.10;;;;;;;-148.88;100.00;-17125.47;5078451;28;20106;-79
2024/01/28 04:33:44;;;;;;;13.32;5.13;;;;;;;-148.88;100.00;-17125.47;5076699;28;20021;-80
2024/01/28 04:36:10;;;;;;;9.30;4.13;;;;;;;-148.88;100.00;-17125.47;5078373;28;20475;-80
2024/01/28 04:38:35;;;;;;;10.38;3.83;;;;;;;-148.88;100.00;-17125.47;5079663;28;20047;-80
2024/01/28 04:41:01;;;;;;;13.13;4.20;;;;;;;-148.88;100.00;-17125.47;5078312;28;20027;-80
2024/01/28 04:43:27;;;;;;;17.45;4.78;;;;;;;-148.88;100.00;-17125.47;5078612;28;20025;-80
2024/01/28 04:45:53;;;;;;;13.57;4.63;;;;;;;-148.88;100.00;-17125.47;5080091;28;20025;-79
2024/01/28 04:48:19;;;;;;;12.02;5.05;;;;;;;-148.88;100.00;-17125.47;5080471;28;20552;-79
2024/01/28 04:50:44;;;;;;;14.82;4.88;;;;;;;-148.88;100.00;-17125.47;5079298;28;20479;-79
2024/01/28 04:53:09;;;;;;;14.63;6.38;;;;;;;-148.88;100.00;-17125.47;5079600;28;20023;-80
2024/01/28 04:55:35;;;;;;;25.83;9.90;;;;;;;-148.88;100.00;-17125.47;5080093;28;20031;-80
2024/01/28 04:58:01;;;;;;;16.50;7.40;;;;;;;-148.88;100.00;-17125.47;5080124;28;20036;-79
2024/01/28 05:00:26;;;;;;;16.42;6.63;;;;;;;-148.88;100.00;-17125.47;5079690;28;20449;-79
2024/01/28 05:02:55;;;;;;;10.80;4.47;;;;;;;-148.88;100.00;-17125.47;5079884;28;20048;-80
2024/01/28 05:05:21;;;;;;;19.08;6.47;;;;;;;-148.88;100.00;-17125.47;5077763;28;20028;-80
2024/01/28 05:07:47;;;;;;;11.50;6.13;;;;;;;-148.88;100.00;-17125.47;5077137;28;20025;-79
2024/01/28 05:10:12;;;;;;;15.88;5.82;;;;;;;-148.88;100.00;-17125.47;5077167;28;20045;-80
2024/01/28 05:12:38;;;;;;;14.55;5.03;;;;;;;-148.88;100.00;-17125.47;5077399;28;20109;-80
2024/01/28 05:15:04;;;;;;;13.43;5.28;;;;;;;-148.88;100.00;-17125.47;5077376;28;20051;-79
2024/01/28 05:17:29;;;;;;;16.13;5.03;;;;;;;-148.88;100.00;-17125.47;5077664;28;20093;-79
2024/01/28 05:19:55;;;;;;;11.60;5.63;;;;;;;-148.88;100.00;-17125.47;5078332;28;20044;-80
2024/01/28 05:22:22;;;;;;;14.07;5.32;;;;;;;-148.88;100.00;-17125.47;5078329;28;20025;-79
2024/01/28 05:24:49;;;;;;;17.50;5.45;;;;;;;-148.88;100.00;-17125.47;5079424;28;20071;-79
2024/01/28 05:27:15;;;;;;;15.98;5.60;;;;;;;-148.88;100.00;-17125.47;5077529;28;20024;-80
2024/01/28 05:29:40;;;;;;;14.05;5.65;;;;;;;-148.88;100.00;-17125.47;5078963;28;20103;-79
2024/01/28 05:32:06;;;;;;;11.82;5.32;;;;;;;-148.88;100.00;-17125.47;5077178;28;20376;-79
2024/01/28 05:34:31;;;;;;;13.85;5.97;;;;;;;-148.88;100.00;-17125.47;5079150;28;20029;-80
2024/01/28 05:36:56;;;;;;;14.02;4.75;;;;;;;-148.88;100.00;-17125.47;5079273;28;20033;-79
2024/01/28 05:39:21;;;;;;;13.10;4.68;;;;;;;-148.88;100.00;-17125.47;5078920;28;20036;-79
2024/01/28 05:41:47;;;;;;;15.60;4.90;;;;;;;-148.88;100.00;-17125.47;5076818;28;20029;-79
2024/01/28 05:44:12;;;;;;;15.80;5.15;;;;;;;-148.88;100.00;-17125.47;5075318;28;20020;-80
2024/01/28 05:46:38;;;;;;;15.25;4.75;;;;;;;-148.88;100.00;-17125.47;5076748;28;20079;-80
2024/01/28 05:49:03;;;;;;;12.55;4.53;;;;;;;-148.88;100.00;-17125.47;5077096;28;20024;-80
2024/01/28 05:51:30;;;;;;;15.57;6.22;;;;;;;-148.88;100.00;-17125.47;5077258;28;20028;-79
2024/01/28 05:53:56;;;;;;;13.50;5.35;;;;;;;-148.88;100.00;-17125.47;5076888;28;20090;-80
2024/01/28 05:56:21;;;;;;;14.23;4.70;;;;;;;-148.88;100.00;-17125.47;5083596;28;20021;-80
2024/01/28 05:58:48;;;;;;;8.98;4.72;;;;;;;-148.88;100.00;-17125.47;5083558;28;20387;-80
2024/01/28 06:01:14;;;;;;;13.52;4.88;;;;;;;-148.88;100.00;-17125.47;5081835;28;20020;-79
2024/01/28 06:03:41;;;;;;;15.10;5.00;;;;;;;-148.88;100.00;-17125.47;5082833;28;20474;-79
2024/01/28 06:06:07;;;;;;;15.48;5.70;;;;;;;-148.88;100.00;-17125.47;5081133;28;20029;-79
2024/01/28 06:08:32;;;;;;;11.30;4.75;;;;;;;-148.88;100.00;-17125.47;5083068;28;20098;-80
2024/01/28 06:10:57;;;;;;;12.80;4.60;;;;;;;-148.88;100.00;-17125.47;5083216;28;20048;-80
2024/01/28 06:13:23;;;;;;;12.38;4.88;;;;;;;-148.88;100.00;-17125.47;5083337;28;20047;-80
2024/01/28 06:15:48;;;;;;;14.48;4.85;;;;;;;-148.88;100.00;-17125.47;5081937;28;20032;-79
2024/01/28 06:18:14;;;;;;;16.30;4.88;;;;;;;-148.88;100.00;-17125.47;5078867;28;20028;-80
2024/01/28 06:20:39;;;;;;;14.90;4.85;;;;;;;-148.88;100.00;-17125.47;5078828;28;20055;-80
2024/01/28 06:23:04;;;;;;;11.30;4.75;;;;;;;-148.88;100.00;-17125.47;5079597;28;20443;-80
2024/01/28 06:25:30;;;;;;;22.65;4.55;;;;;;;-148.88;100.00;-17125.47;5078765;28;20570;-79
2024/01/28 06:27:55;;;;;;;13.98;4.32;;;;;;;-148.88;100.00;-17125.47;5080586;28;20395;-79
2024/01/28 06:30:20;;;;;;;13.73;4.18;;;;;;;-148.88;100.00;-17125.47;5082041;28;20055;-79
2024/01/28 06:32:46;;;;;;;10.23;3.90;;;;;;;-148.88;100.00;-17125.47;5081741;28;20032;-80
2024/01/28 06:35:11;;;;;;;12.82;3.80;;;;;;;-148.88;100.00;-17125.47;5083178;28;20028;-80
2024/01/28 06:37:36;;;;;;;11.52;4.03;;;;;;;-148.88;100.00;-17125.47;5081119;28;20032;-80
2024/01/28 06:40:02;;;;;;;16.15;4.35;;;;;;;-148.88;100.00;-17125.47;5082121;28;20024;-79
2024/01/28 06:42:29;;;;;;;10.90;3.75;;;;;;;-148.88;100.00;-17125.47;5080532;28;20082;-79
2024/01/28 06:44:55;;;;;;;13.75;4.00;;;;;;;-148.88;100.00;-17125.47;5081227;28;20033;-79
2024/01/28 06:47:20;;;;;;;20.80;4.00;;;;;;;-148.88;100.00;-17125.47;5081852;28;20021;-79
2024/01/28 06:49:46;;;;;;;18.38;3.58;;;;;;;-148.88;100.00;-17125.47;5081588;28;20029;-79
2024/01/28 06:52:11;;;;;;;12.30;3.08;;;;;;;-148.88;100.00;-17125.47;5078434;28;20013;-79
2024/01/28 06:54:40;;;;;;;13.50;3.95;;;;;;;-148.88;100.00;-17125.47;5079265;28;20036;-79
2024/01/28 06:57:06;;;;;;;11.48;3.45;;;;;;;-148.88;100.00;-17125.47;5077003;28;20039;-79
2024/01/28 06:59:31;;;;;;;11.75;3.80;;;;;;;-148.88;100.00;-17125.47;5079782;28;20028;-79
2024/01/28 07:01:57;;;;;;;7.60;3.70;;;;;;;-148.88;100.00;-17125.47;5080422;28;20024;-79
2024/01/28 07:04:22;;;;;;;9.45;3.28;;;;;;;-148.88;100.00;-17125.47;5081849;28;20103;-80
2024/01/28 07:06:47;;;;;;;8.65;3.70;;;;;;;-148.88;100.00;-17125.47;5081722;28;20024;-79
2024/01/28 07:09:13;;;;;;;12.80;3.45;;;;;;;-148.88;100.00;-17125.47;5081661;28;20063;-79
2024/01/28 07:11:38;;;;;;;10.45;3.50;;;;;;;-148.88;100.00;-17125.47;5080099;28;20024;-79
2024/01/28 07:14:03;;;;;;;15.50;4.13;;;;;;;-148.88;100.00;-17125.47;5079614;28;20012;-79
2024/01/28 07:16:29;;;;;;;12.38;3.58;;;;;;;-148.88;100.00;-17125.47;5080061;28;20024;-79
2024/01/28 07:18:54;;;;;;;14.38;3.90;;;;;;;-148.88;100.00;-17125.47;5080608;28;20028;-79
2024/01/28 07:21:19;;;;;;;9.30;3.75;;;;;;;-148.88;100.00;-17125.47;5081581;28;20024;-79
2024/01/28 07:23:45;;;;;;;8.48;3.90;;;;;;;-148.88;100.00;-17125.47;5081299;28;20102;-79
2024/01/28 07:26:10;;;;;;;11.30;3.90;;;;;;;-148.88;100.00;-17125.47;5082706;28;20036;-80
2024/01/28 07:28:36;;;;;;;10.75;4.90;;;;;;;-148.88;100.00;-17125.47;5077324;28;20043;-80
2024/01/28 07:31:02;;;;;;;10.82;4.97;;;;;;;-148.88;100.00;-17125.47;5076896;28;20036;-79
2024/01/28 07:33:27;;;;;;;15.52;4.65;;;;;;;-148.88;100.00;-17125.47;5076427;28;20016;-80
2024/01/28 07:35:53;;;;;;;13.43;4.45;;;;;;;-148.88;100.00;-17125.47;5080009;28;20429;-79
2024/01/28 07:38:18;;;;;;;14.45;4.53;;;;;;;-148.88;100.00;-17125.47;5081109;28;20492;-79
2024/01/28 07:40:43;;;;;;;14.38;3.75;;;;;;;-148.88;100.00;-17125.47;5078860;28;20487;-79
2024/01/28 07:43:09;;;;;;;9.05;3.33;;;;;;;-148.88;100.00;-17125.47;5076929;28;20551;-79
2024/01/28 07:45:37;;;;;;;10.65;3.80;;;;;;;-148.88;100.00;-17125.47;5078326;28;20444;-79
2024/01/28 07:48:03;;;;;;;13.00;3.95;;;;;;;-148.88;100.00;-17125.47;5076671;28;20051;-79
2024/01/28 07:50:28;;;;;;;11.88;4.28;;;;;;;-148.88;100.00;-17125.47;5078441;28;20024;-79
2024/01/28 07:52:53;;;;;;;10.63;3.58;;;;;;;-148.88;100.00;-17125.47;5078476;28;20021;-79
2024/01/28 07:55:19;;;;;;;12.00;4.30;;;;;;;-148.88;100.00;-17125.47;5077701;28;20024;-79
2024/01/28 07:57:44;;;;;;;10.55;3.97;;;;;;;-148.88;100.00;-17125.47;5076503;28;20032;-79
2024/01/28 08:00:12;;;;;;;14.18;3.80;;;;;;;-148.88;100.00;-17125.47;5079505;28;20427;-79
2024/01/28 08:02:37;;;;;;;14.88;3.63;;;;;;;-148.88;100.00;-17125.47;5083168;28;20050;-79
2024/01/28 08:05:02;;;;;;;10.73;3.30;;;;;;;-148.88;100.00;-17125.47;5085510;28;20032;-79
2024/01/28 08:07:28;;;;;;;10.25;3.53;;;;;;;-148.88;100.00;-17125.47;5083602;28;20078;-79
2024/01/28 08:09:53;;;;;;;11.30;3.53;;;;;;;-148.88;100.00;-17125.47;5083473;28;20020;-80
2024/01/28 08:12:18;;;;;;;11.95;3.38;;;;;;;-148.88;100.00;-17125.47;5081902;28;20024;-79
2024/01/28 08:14:44;;;;;;;12.02;4.57;;;;;;;-148.88;100.00;-17125.47;5082518;28;20027;-79
2024/01/28 08:17:10;;;;;;;9.27;3.25;;;;;;;-148.88;100.00;-17125.47;5082673;28;20060;-80
2024/01/28 08:19:36;;;;;;;12.93;3.40;;;;;;;-148.88;100.00;-17125.47;5082478;28;20111;-79
2024/01/28 08:22:02;;;;;;;8.30;3.50;;;;;;;-148.88;100.00;-17125.47;5080131;28;20032;-79
2024/01/28 08:24:27;;;;;;;9.32;3.42;;;;;;;-148.88;100.00;-17125.47;5082904;28;20036;-79
2024/01/28 08:26:52;;;;;;;4.57;2.80;;;;;;;-148.88;100.00;-17125.47;5082897;28;20028;-79
2024/01/28 08:29:18;;;;;;;13.35;3.85;;;;;;;-148.88;100.00;-17125.47;5082130;28;20028;-79
2024/01/28 08:31:43;;;;;;;9.73;3.92;;;;;;;-148.88;100.00;-17125.47;5083461;28;20024;-79
2024/01/28 08:34:09;;;;;;;13.52;3.75;;;;;;;-148.88;100.00;-17125.47;5082819;28;20020;-79
2024/01/28 08:36:34;;;;;;;6.22;3.08;;;;;;;-148.88;100.00;-17125.47;5083278;28;20426;-80
2024/01/28 08:39:00;;;;;;;6.22;2.80;;;;;;;-148.88;100.00;-17125.47;5083103;28;20047;-80
2024/01/28 08:41:25;;;;;;;7.88;3.05;;;;;;;-148.88;100.00;-17125.47;5084497;28;20056;-80
2024/01/28 08:43:51;;;;;;;9.25;3.28;;;;;;;-148.88;100.00;-17125.47;5082963;28;20031;-79
2024/01/28 08:46:16;;;;;;;5.38;2.60;;;;;;;-148.88;100.00;-17125.47;5082962;28;20122;-80
2024/01/28 08:48:42;;;;;;;8.07;3.00;;;;;;;-148.88;100.00;-17125.47;5082624;28;20032;-80
2024/01/28 08:51:08;;;;;;;8.80;3.25;;;;;;;-148.88;100.00;-17125.47;5085310;28;20402;-80
2024/01/28 08:53:33;;;;;;;11.60;3.45;;;;;;;-148.88;100.00;-17125.47;5083888;28;20468;-79
2024/01/28 08:55:59;;;;;;;19.77;5.35;;;;;;;-148.88;100.00;-17125.47;5081627;28;20033;-80
2024/01/28 08:58:24;;;;;;;24.75;10.35;;;;;;;-148.88;100.00;-17125.47;5079531;28;20024;-80
2024/01/28 09:00:49;;;;;;;8.68;3.95;;;;;;;-148.88;100.00;-17125.47;5081133;28;20024;-80
2024/01/28 09:03:14;;;;;;;13.65;5.47;;;;;;;-148.88;100.00;-17125.47;5081177;28;20020;-80
2024/01/28 09:05:40;;;;;;;11.48;3.67;;;;;;;-148.88;100.00;-17125.47;5085552;28;20037;-80
2024/01/28 09:08:05;;;;;;;16.08;4.00;;;;;;;-148.88;100.00;-17125.47;5083658;28;20016;-80
2024/01/28 09:10:31;;;;;;;10.00;3.53;;;;;;;-148.88;100.00;-17125.47;5084246;28;20388;-80
2024/01/28 09:12:56;;;;;;;13.57;3.85;;;;;;;-148.88;100.00;-17125.47;5084446;28;20476;-80
2024/01/28 09:15:23;;;;;;;8.18;2.97;;;;;;;-148.88;100.00;-17125.47;5087029;28;20032;-80
2024/01/28 09:17:48;;;;;;;8.27;2.42;;;;;;;-148.88;100.00;-17125.47;5084704;28;20020;-80
2024/01/28 09:20:14;;;;;;;9.32;3.10;;;;;;;-148.88;100.00;-17125.47;5085777;28;20491;-81
2024/01/28 09:22:40;;;;;;;7.40;2.65;;;;;;;-148.88;100.00;-17125.47;5085328;28;20050;-80
2024/01/28 09:25:05;;;;;;;6.07;2.72;;;;;;;-148.88;100.00;-17125.47;5088116;28;20029;-80
2024/01/28 09:27:31;;;;;;;8.05;3.08;;;;;;;-148.88;100.00;-17125.47;5085724;28;20601;-80
2024/01/28 09:29:56;;;;;;;6.47;2.40;;;;;;;-148.88;100.00;-17125.47;5089298;28;20031;-80
2024/01/28 09:32:24;;;;;;;10.48;3.10;;;;;;;-148.88;100.00;-17125.47;5087078;28;20013;-80
2024/01/28 09:34:51;;;;;;;5.50;2.60;;;;;;;-148.88;100.00;-17125.47;5089161;28;20054;-80
2024/01/28 09:37:17;;;;;;;9.07;3.10;;;;;;;-148.88;100.00;-17125.47;5090258;28;20083;-80
2024/01/28 09:39:43;;;;;;;9.68;2.78;;;;;;;-148.88;100.00;-17125.47;5088482;28;20024;-80
2024/01/28 09:42:16;;;;;;;5.78;2.35;;;;;;;-148.88;100.00;-17125.47;5086843;28;20024;-80
2024/01/28 09:44:41;;;;;;;10.73;2.85;;;;;;;-148.88;100.00;-17125.47;5086432;28;20040;-80
2024/01/28 09:47:08;;;;;;;8.68;2.50;;;;;;;-148.88;100.00;-17125.47;5089315;28;20028;-81
2024/01/28 09:49:40;;;;;;;8.55;2.92;;;;;;;-148.88;100.00;-17125.47;5087513;28;20028;-80
2024/01/28 09:52:14;;;;;;;5.38;2.30;;;;;;;-148.88;100.00;-17125.47;5089844;28;20471;-81
2024/01/28 09:54:44;;;;;;;7.72;2.90;;;;;;;-148.88;100.00;-17125.47;5088913;28;20033;-80
2024/01/28 09:57:10;;;;;;;14.77;3.20;;;;;;;-148.88;100.00;-17125.47;5086910;28;20096;-81
2024/01/28 09:59:36;;;;;;;11.93;3.17;;;;;;;-148.88;100.00;-17125.47;5088264;28;20044;-81
2024/01/28 10:02:03;;;;;;;10.48;2.58;;;;;;;-148.88;100.00;-17125.47;5088717;28;20024;-81
2024/01/28 10:04:29;;;;;;;7.97;2.60;;;;;;;-148.88;99.86;-17125.47;5086947;28;20407;-80
2024/01/28 10:07:02;;;;;;;7.78;3.10;;;;;;;-148.88;99.79;-17125.47;5091081;28;20028;-81
2024/01/28 10:09:28;;;;;;;5.53;2.40;;;;;;;-148.88;99.62;-17125.47;5092010;28;20024;-80
2024/01/28 10:11:53;;;;;;;7.07;2.50;;;;;;;-148.88;99.06;-17125.47;5089463;28;20024;-80
2024/01/28 10:14:19;;;;;;;7.93;2.42;;;;;;;-148.88;98.72;-17125.47;5089888;28;20032;-81
2024/01/28 10:16:48;;;;;;;6.43;2.92;;;;;;;-148.88;98.27;-17125.47;5090387;28;20502;-81
2024/01/28 10:19:14;;;;;;;10.43;2.85;;;;;;;-148.88;97.08;-17125.47;5090465;28;20155;-81
2024/01/28 10:21:41;;;;;;;7.10;2.78;;;;;;;-148.88;96.50;-17125.47;5089087;28;20032;-81
2024/01/28 10:24:09;;;;;;;9.57;3.50;;;;;;;-148.88;97.05;-17125.47;5086736;28;20017;-81
2024/01/28 10:26:34;;;;;;;11.93;2.92;;;;;;;-148.88;94.71;-17125.47;5087583;28;20098;-81
2024/01/28 10:29:00;;;;;;;9.70;2.65;;;;;;;-148.88;94.68;-17125.47;5087822;28;20028;-81
2024/01/28 10:31:26;;;;;;;9.45;2.55;;;;;;;-148.88;94.74;-17125.47;5085969;28;20025;-80
2024/01/28 10:33:51;;;;;;;11.13;2.75;;;;;;;-148.88;94.25;-17125.47;5086284;28;20024;-80
2024/01/28 10:36:17;;;;;;;8.50;2.80;;;;;;;-148.88;94.54;-17125.47;5084253;28;20090;-80
2024/01/28 10:38:46;;;;;;;11.82;2.92;;;;;;;-148.88;93.09;-17125.47;5085935;28;20121;-81
2024/01/28 10:41:15;;;;;;;7.18;2.75;;;;;;;-148.88;92.78;-17125.47;5082459;28;20095;-80
2024/01/28 10:43:56;;;;;;;7.55;2.50;;;;;;;-148.88;91.55;-17125.47;5083183;28;20553;-80
2024/01/28 10:46:31;;;;;;;4.88;2.22;;;;;;;-148.88;91.22;-17125.47;5083392;28;20179;-80
2024/01/28 10:49:02;;;;;;;6.00;2.28;;;;;;;-148.88;89.02;-17125.47;5083451;28;20031;-80
2024/01/28 10:51:29;;;;;;;15.02;8.93;;;;;;;-148.88;87.65;-17125.47;5083542;28;20039;-80
2024/01/28 10:53:55;;;;;;;6.70;2.40;;;;;;;-148.88;87.92;-17125.47;5083660;28;20060;-80
2024/01/28 10:56:21;;;;;;;8.50;2.40;;;;;;;-148.88;87.11;-17125.47;5083585;28;20024;-80